createdAt,value
2022-12-22T00:00:39.836Z,88.13
2022-12-22T00:03:32.223Z,87.86
2022-12-22T00:06:18.003Z,87.94
2022-12-22T00:09:05.944Z,87.88
2022-12-22T00:11:52.131Z,87.93
2022-12-22T00:14:38.040Z,87.72
2022-12-22T00:17:36.416Z,87.59
2022-12-22T00:20:30.906Z,88.06
2022-12-22T00:23:16.785Z,87.88
2022-12-22T00:26:03.310Z,87.93
2022-12-22T00:28:49.353Z,87.61
2022-12-22T00:31:36.748Z,87.74
2022-12-22T00:34:29.307Z,87.32
2022-12-22T00:37:18.249Z,87.19
2022-12-22T00:40:04.345Z,87.19
2022-12-22T00:46:15.546Z,87.11
2022-12-22T00:49:02.835Z,87.53
2022-12-22T00:51:51.155Z,87.21
2022-12-22T00:54:38.640Z,86.78
2022-12-22T00:57:24.187Z,87.34
2022-12-22T01:00:12.490Z,87.69
2022-12-22T01:02:58.474Z,86.96
2022-12-22T01:05:44.450Z,86.88
2022-12-22T01:08:31.999Z,86.98
2022-12-22T01:11:17.922Z,86.70
2022-12-22T01:14:03.792Z,87.47
2022-12-22T01:16:49.661Z,86.98
2022-12-22T01:19:35.549Z,86.82
2022-12-22T01:22:21.397Z,87.20
2022-12-22T01:25:08.701Z,87.11
2022-12-22T01:27:54.683Z,87.32
2022-12-22T01:30:40.663Z,86.98
2022-12-22T01:33:30.698Z,87.25
2022-12-22T01:36:16.495Z,86.52
2022-12-22T01:39:02.356Z,87.07
2022-12-22T01:41:49.515Z,86.99
2022-12-22T01:44:36.621Z,86.92
2022-12-22T01:47:53.848Z,87.26
2022-12-22T01:50:47.385Z,86.53
2022-12-22T01:53:38.404Z,86.65
2022-12-22T01:56:25.232Z,86.86
2022-12-22T01:59:14.958Z,86.69
2022-12-22T02:02:02.397Z,86.92
2022-12-22T02:04:51.322Z,87.11
2022-12-22T02:07:52.737Z,86.90
2022-12-22T02:10:53.522Z,86.93
2022-12-22T02:13:49.031Z,86.55
2022-12-22T02:16:45.303Z,86.82
2022-12-22T02:19:42.166Z,86.38
2022-12-22T02:22:38.500Z,86.95
2022-12-22T02:25:29.253Z,86.85
2022-12-22T02:28:18.971Z,86.47
2022-12-22T02:31:06.533Z,87.03
2022-12-22T02:33:52.338Z,86.41
2022-12-22T02:36:46.141Z,86.77
2022-12-22T02:39:41.106Z,86.79
2022-12-22T02:42:35.670Z,86.71
2022-12-22T02:45:35.177Z,86.93
2022-12-22T02:48:26.412Z,86.38
2022-12-22T02:51:19.475Z,86.49
2022-12-22T02:54:05.879Z,86.62
2022-12-22T02:56:52.173Z,86.62
2022-12-22T02:59:37.958Z,86.29
2022-12-22T03:02:25.278Z,86.32
2022-12-22T03:05:11.312Z,86.53
2022-12-22T03:07:57.307Z,86.06
2022-12-22T03:10:43.213Z,86.14
2022-12-22T03:13:29.028Z,86.33
2022-12-22T03:16:15.100Z,85.96
2022-12-22T03:19:02.334Z,85.65
2022-12-22T03:21:48.242Z,86.29
2022-12-22T03:24:34.377Z,86.09
2022-12-22T03:27:02.741Z,85.84
2022-12-22T03:29:31.068Z,85.79
2022-12-22T03:31:59.570Z,85.80
2022-12-22T03:34:29.304Z,85.71
2022-12-22T03:36:57.694Z,85.76
2022-12-22T03:39:26.028Z,85.39
2022-12-22T03:42:26.591Z,85.37
2022-12-22T03:45:12.650Z,85.18
2022-12-22T03:47:42.352Z,85.73
2022-12-22T03:50:12.239Z,85.07
2022-12-22T03:52:40.605Z,85.50
2022-12-22T03:55:09.422Z,85.26
2022-12-22T03:57:37.801Z,85.49
2022-12-22T04:00:13.558Z,85.06
2022-12-22T04:02:42.230Z,85.43
2022-12-22T04:05:12.230Z,85.56
2022-12-22T04:07:40.572Z,85.27
2022-12-22T04:10:27.841Z,85.82
2022-12-22T04:12:56.220Z,85.27
2022-12-22T04:15:25.500Z,85.46
2022-12-22T04:17:54.644Z,85.57
2022-12-22T04:20:26.984Z,85.16
2022-12-22T04:22:56.755Z,85.33
2022-12-22T04:25:25.916Z,85.53
2022-12-22T04:27:54.297Z,85.43
2022-12-22T04:30:22.865Z,85.51
2022-12-22T04:32:51.202Z,85.57
2022-12-22T04:35:19.605Z,85.54
2022-12-22T04:37:49.404Z,85.46
2022-12-22T04:40:17.956Z,85.75
2022-12-22T04:42:46.502Z,85.57
2022-12-22T04:45:14.857Z,85.28
2022-12-22T04:47:43.180Z,85.65
2022-12-22T04:50:12.143Z,85.60
2022-12-22T04:52:41.934Z,85.13
2022-12-22T04:55:11.887Z,85.44
2022-12-22T04:57:41.212Z,85.58
2022-12-22T05:00:11.450Z,85.42
2022-12-22T05:02:39.930Z,85.43
2022-12-22T05:05:09.904Z,85.81
2022-12-22T05:07:38.546Z,85.44
2022-12-22T05:10:07.851Z,86.03
2022-12-22T05:12:55.590Z,85.42
2022-12-22T05:15:24.897Z,85.59
2022-12-22T05:17:53.655Z,86.30
2022-12-22T05:20:22.732Z,86.35
2022-12-22T05:22:51.585Z,86.00
2022-12-22T05:25:20.888Z,86.16
2022-12-22T05:27:52.025Z,86.07
2022-12-22T05:30:21.642Z,85.82
2022-12-22T05:32:50.114Z,85.63
2022-12-22T05:35:18.661Z,85.56
2022-12-22T05:37:46.976Z,85.78
2022-12-22T05:40:15.468Z,85.75
2022-12-22T05:42:44.043Z,86.08
2022-12-22T05:45:16.146Z,85.94
2022-12-22T05:47:45.606Z,85.83
2022-12-22T05:50:16.604Z,85.65
2022-12-22T05:52:45.670Z,85.51
2022-12-22T05:55:15.350Z,85.61
2022-12-22T05:57:44.565Z,85.62
2022-12-22T06:00:17.347Z,85.33
2022-12-22T06:02:46.110Z,85.42
2022-12-22T06:05:16.143Z,85.29
2022-12-22T06:07:44.528Z,85.32
2022-12-22T06:10:14.313Z,85.16
2022-12-22T06:12:43.296Z,85.16
2022-12-22T06:15:14.977Z,84.98
2022-12-22T06:17:45.146Z,85.11
2022-12-22T06:20:14.591Z,85.32
2022-12-22T06:22:43.135Z,85.58
2022-12-22T06:25:17.718Z,85.82
2022-12-22T06:27:47.502Z,85.91
2022-12-22T06:30:18.008Z,85.25
2022-12-22T06:32:46.298Z,85.20
2022-12-22T06:35:15.192Z,85.68
2022-12-22T06:37:43.554Z,85.53
2022-12-22T06:40:12.527Z,85.66
2022-12-22T06:43:02.356Z,85.45
2022-12-22T06:45:38.627Z,85.52
2022-12-22T06:48:07.207Z,85.99
2022-12-22T06:50:35.766Z,85.73
2022-12-22T06:53:04.414Z,85.67
2022-12-22T06:55:33.125Z,85.66
2022-12-22T06:58:02.087Z,86.22
2022-12-22T07:00:30.617Z,85.66
2022-12-22T07:03:00.524Z,86.44
2022-12-22T07:05:30.462Z,86.16
2022-12-22T07:08:05.761Z,85.50
2022-12-22T07:10:53.882Z,85.54
2022-12-22T07:13:23.974Z,85.92
2022-12-22T07:16:00.236Z,85.83
2022-12-22T07:18:32.904Z,85.85
2022-12-22T07:21:02.594Z,86.16
2022-12-22T07:23:32.199Z,86.14
2022-12-22T07:26:00.925Z,85.96
2022-12-22T07:28:29.299Z,85.77
2022-12-22T07:30:57.801Z,86.03
2022-12-22T07:33:26.307Z,86.05
2022-12-22T07:36:08.060Z,86.44
2022-12-22T07:38:38.071Z,85.67
2022-12-22T07:41:28.974Z,85.87
2022-12-22T07:43:58.086Z,86.32
2022-12-22T07:46:29.341Z,85.64
2022-12-22T07:49:15.665Z,85.75
2022-12-22T07:51:45.712Z,86.17
2022-12-22T07:54:16.295Z,85.64
2022-12-22T07:56:45.932Z,85.98
2022-12-22T07:59:14.885Z,85.74
2022-12-22T08:01:43.954Z,85.74
2022-12-22T08:04:13.315Z,85.77
2022-12-22T08:06:42.251Z,86.22
2022-12-22T08:09:16.101Z,85.32
2022-12-22T08:11:44.672Z,85.55
2022-12-22T08:14:13.058Z,85.12
2022-12-22T08:16:41.563Z,85.35
2022-12-22T08:19:10.089Z,85.07
2022-12-22T08:21:38.482Z,85.50
2022-12-22T08:24:07.857Z,85.09
2022-12-22T08:26:42.901Z,85.20
2022-12-22T08:29:15.877Z,84.54
2022-12-22T08:31:45.103Z,84.71
2022-12-22T08:34:16.266Z,84.75
2022-12-22T08:36:49.654Z,84.27
2022-12-22T08:39:19.672Z,84.20
2022-12-22T08:41:52.340Z,84.58
2022-12-22T08:44:23.972Z,84.64
2022-12-22T08:46:53.873Z,84.21
2022-12-22T08:49:22.772Z,84.07
2022-12-22T08:51:51.554Z,84.11
2022-12-22T08:54:20.503Z,84.05
2022-12-22T08:56:50.603Z,84.11
2022-12-22T08:59:18.986Z,84.08
2022-12-22T09:01:50.925Z,83.86
2022-12-22T09:04:21.492Z,84.12
2022-12-22T09:06:52.238Z,84.05
2022-12-22T09:09:21.074Z,83.94
2022-12-22T09:11:51.272Z,83.83
2022-12-22T09:14:19.745Z,83.39
2022-12-22T09:16:48.460Z,83.30
2022-12-22T09:19:16.785Z,83.65
2022-12-22T09:21:46.018Z,83.22
2022-12-22T09:24:14.815Z,83.59
2022-12-22T09:26:43.453Z,83.08
2022-12-22T09:29:15.425Z,83.23
2022-12-22T09:31:45.083Z,82.92
2022-12-22T09:34:18.006Z,82.66
2022-12-22T09:36:48.117Z,82.41
2022-12-22T09:39:16.935Z,82.60
2022-12-22T09:41:48.015Z,82.27
2022-12-22T09:44:25.741Z,82.08
2022-12-22T09:46:56.950Z,82.51
2022-12-22T09:49:26.622Z,82.60
2022-12-22T09:51:58.315Z,82.95
2022-12-22T09:54:27.614Z,82.83
2022-12-22T09:56:56.779Z,83.00
2022-12-22T09:59:30.197Z,82.83
2022-12-22T10:02:07.164Z,82.87
2022-12-22T10:04:54.717Z,82.37
2022-12-22T10:07:29.797Z,82.70
2022-12-22T10:09:58.207Z,82.61
2022-12-22T10:12:27.386Z,82.40
2022-12-22T10:14:57.081Z,82.45
2022-12-22T10:17:28.305Z,82.02
2022-12-22T10:20:20.899Z,81.84
2022-12-22T10:22:51.084Z,81.98
2022-12-22T10:28:34.874Z,80.97
2022-12-22T10:31:21.141Z,80.07
2022-12-22T10:33:51.286Z,80.32
2022-12-22T10:36:24.223Z,80.36
2022-12-22T10:39:11.357Z,80.02
2022-12-22T10:41:43.199Z,80.65
2022-12-22T10:44:21.486Z,80.64
2022-12-22T10:46:52.992Z,80.56
2022-12-22T10:49:24.270Z,80.70
2022-12-22T10:51:55.332Z,80.60
2022-12-22T10:54:32.752Z,80.77
2022-12-22T10:57:06.781Z,80.80
2022-12-22T10:59:48.144Z,80.92
2022-12-22T11:02:28.497Z,80.83
2022-12-22T11:05:03.566Z,80.97
2022-12-22T11:07:34.747Z,81.18
2022-12-22T11:10:03.451Z,80.93
2022-12-22T11:12:41.551Z,81.63
2022-12-22T11:15:24.817Z,81.43
2022-12-22T11:18:03.559Z,81.46
2022-12-22T11:20:41.908Z,81.23
2022-12-22T11:23:20.187Z,81.24
2022-12-22T11:25:57.520Z,81.03
2022-12-22T11:28:40.363Z,80.43
2022-12-22T11:31:22.936Z,80.70
2022-12-22T11:34:03.552Z,80.99
2022-12-22T11:36:41.004Z,80.87
2022-12-22T11:39:15.087Z,81.14
2022-12-22T11:41:55.769Z,81.16
2022-12-22T11:44:41.064Z,81.07
2022-12-22T11:47:22.938Z,81.35
2022-12-22T11:51:00.383Z,80.95
2022-12-22T11:53:02.808Z,81.33
2022-12-22T11:55:34.693Z,81.47
2022-12-22T11:58:33.428Z,80.78
2022-12-22T12:01:22.420Z,81.17
2022-12-22T12:04:25.017Z,81.06
2022-12-22T12:07:10.197Z,81.16
2022-12-22T12:09:47.939Z,81.10
2022-12-22T12:12:26.328Z,81.17
2022-12-22T12:15:07.844Z,81.26
2022-12-22T12:17:51.905Z,80.94
2022-12-22T12:20:34.747Z,80.93
2022-12-22T12:23:19.680Z,80.73
2022-12-22T12:25:54.269Z,81.02
2022-12-22T12:28:30.852Z,80.85
2022-12-22T12:31:01.742Z,81.03
2022-12-22T12:33:37.938Z,81.32
2022-12-22T12:36:15.558Z,81.42
2022-12-22T12:39:07.479Z,81.34
2022-12-22T12:41:45.047Z,81.54
2022-12-22T12:44:16.170Z,81.63
2022-12-22T12:47:05.187Z,81.52
2022-12-22T12:50:07.199Z,81.39
2022-12-22T12:53:17.738Z,81.50
2022-12-22T12:56:07.717Z,81.75
2022-12-22T12:58:53.309Z,81.67
2022-12-22T13:01:58.106Z,81.81
2022-12-22T13:05:10.504Z,81.79
2022-12-22T13:08:17.102Z,81.75
2022-12-22T13:11:10.776Z,82.08
2022-12-22T13:13:52.214Z,81.83
2022-12-22T13:16:32.615Z,81.85
2022-12-22T13:19:04.856Z,81.90
2022-12-22T13:21:52.786Z,82.18
2022-12-22T13:24:27.638Z,81.94
2022-12-22T13:27:14.418Z,82.16
2022-12-22T13:29:48.292Z,82.08
2022-12-22T13:32:24.626Z,82.16
2022-12-22T13:37:53.920Z,82.31
2022-12-22T13:40:25.354Z,82.09
2022-12-22T13:42:56.071Z,82.30
2022-12-22T13:45:35.727Z,82.21
2022-12-22T13:48:10.471Z,82.06
2022-12-22T13:50:43.901Z,82.06
2022-12-22T13:53:42.104Z,82.03
2022-12-22T13:56:08.598Z,82.15
2022-12-22T13:58:40.366Z,81.87
2022-12-22T14:01:20.945Z,81.72
2022-12-22T14:04:01.323Z,81.84
2022-12-22T14:06:32.446Z,81.96
2022-12-22T14:09:15.682Z,81.93
2022-12-22T14:11:51.726Z,81.81
2022-12-22T14:14:25.002Z,81.94
2022-12-22T14:16:57.208Z,82.02
2022-12-22T14:19:27.085Z,81.88
2022-12-22T14:22:04.349Z,82.04
2022-12-22T14:24:38.753Z,82.23
2022-12-22T14:27:13.897Z,81.88
2022-12-22T14:29:43.041Z,82.17
2022-12-22T14:32:33.053Z,82.06
2022-12-22T14:35:01.426Z,82.05
2022-12-22T14:37:32.843Z,82.17
2022-12-22T14:40:01.853Z,82.19
2022-12-22T14:42:32.381Z,82.22
2022-12-22T14:45:00.879Z,82.30
2022-12-22T14:47:30.860Z,82.63
2022-12-22T14:50:02.543Z,82.50
2022-12-22T14:52:38.071Z,82.52
2022-12-22T14:55:22.540Z,82.67
2022-12-22T14:57:56.466Z,82.50
2022-12-22T15:00:32.662Z,82.57
2022-12-22T15:03:05.829Z,82.37
2022-12-22T15:05:37.635Z,82.37
2022-12-22T15:08:09.262Z,82.07
2022-12-22T15:10:41.255Z,82.13
2022-12-22T15:13:16.807Z,81.96
2022-12-22T15:15:45.261Z,81.59
2022-12-22T15:18:16.545Z,81.25
2022-12-22T15:20:44.977Z,80.01
2022-12-22T15:23:16.886Z,78.61
2022-12-22T15:25:45.833Z,78.05
2022-12-22T15:28:14.310Z,77.39
2022-12-22T15:30:43.183Z,77.66
2022-12-22T15:33:16.561Z,77.26
2022-12-22T15:35:47.001Z,77.69
2022-12-22T15:38:18.289Z,77.76
2022-12-22T15:40:47.038Z,77.37
2022-12-22T15:43:55.675Z,78.19
2022-12-22T15:46:07.605Z,77.63
2022-12-22T15:48:39.549Z,77.81
2022-12-22T15:51:10.227Z,77.96
2022-12-22T15:53:38.629Z,77.83
2022-12-22T15:56:17.251Z,77.27
2022-12-22T15:58:46.156Z,77.38
2022-12-22T16:01:14.555Z,76.81
2022-12-22T16:03:44.454Z,77.08
2022-12-22T16:06:15.050Z,77.00
2022-12-22T16:08:47.115Z,76.84
2022-12-22T16:11:15.518Z,76.25
2022-12-22T16:13:43.952Z,76.54
2022-12-22T16:16:12.746Z,75.92
2022-12-22T16:18:41.321Z,75.36
2022-12-22T16:21:20.973Z,75.99
2022-12-22T16:23:51.870Z,75.83
2022-12-22T16:26:22.316Z,75.30
2022-12-22T16:28:50.752Z,74.84
2022-12-22T16:31:21.868Z,74.89
2022-12-22T16:33:51.757Z,74.36
2022-12-22T16:36:21.694Z,74.50
2022-12-22T16:38:50.136Z,74.00
2022-12-22T16:41:24.987Z,73.78
2022-12-22T16:46:42.218Z,73.33
2022-12-22T16:49:10.871Z,73.79
2022-12-22T16:51:47.257Z,73.16
2022-12-22T16:54:15.899Z,73.75
2022-12-22T16:56:46.932Z,73.22
2022-12-22T16:59:16.840Z,73.33
2022-12-22T17:01:48.514Z,73.29
2022-12-22T17:04:21.315Z,73.59
2022-12-22T17:06:52.327Z,73.62
2022-12-22T17:09:26.415Z,73.35
2022-12-22T17:11:56.098Z,73.32
2022-12-22T17:14:30.112Z,73.87
2022-12-22T17:16:59.545Z,73.62
2022-12-22T17:19:27.900Z,73.56
2022-12-22T17:22:03.798Z,73.68
2022-12-22T17:24:32.231Z,73.75
2022-12-22T17:27:06.249Z,74.00
2022-12-22T17:29:35.155Z,74.14
2022-12-22T17:32:03.576Z,73.83
2022-12-22T17:34:32.846Z,73.84
2022-12-22T17:37:01.289Z,73.44
2022-12-22T17:39:32.660Z,74.17
2022-12-22T17:42:01.023Z,74.08
2022-12-22T17:44:29.405Z,74.09
2022-12-22T17:46:58.211Z,74.19
2022-12-22T17:49:26.750Z,73.79
2022-12-22T17:51:55.125Z,73.87
2022-12-22T17:54:25.707Z,74.12
2022-12-22T17:57:01.530Z,73.92
2022-12-22T17:59:30.755Z,74.05
2022-12-22T18:02:00.518Z,74.27
2022-12-22T18:04:29.028Z,74.02
2022-12-22T18:06:57.398Z,74.77
2022-12-22T18:09:27.353Z,74.14
2022-12-22T18:11:57.118Z,74.95
2022-12-22T18:14:25.597Z,74.97
2022-12-22T18:16:53.929Z,75.56
2022-12-22T18:19:22.301Z,75.22
2022-12-22T18:21:50.722Z,75.55
2022-12-22T18:24:20.558Z,75.65
2022-12-22T18:26:48.940Z,75.71
2022-12-22T18:29:19.860Z,75.89
2022-12-22T18:31:48.299Z,76.09
2022-12-22T18:34:16.706Z,75.91
2022-12-22T18:36:47.675Z,75.85
2022-12-22T18:39:19.093Z,76.05
2022-12-22T18:41:47.933Z,76.21
2022-12-22T18:44:18.878Z,76.38
2022-12-22T18:46:48.620Z,76.33
2022-12-22T18:49:17.696Z,76.09
2022-12-22T18:51:46.615Z,76.49
2022-12-22T18:54:29.941Z,76.59
2022-12-22T18:56:58.313Z,76.56
2022-12-22T18:59:29.414Z,76.47
2022-12-22T19:02:02.492Z,76.60
2022-12-22T19:04:31.176Z,77.00
2022-12-22T19:06:59.609Z,76.92
2022-12-22T19:09:28.060Z,76.74
2022-12-22T19:11:56.387Z,77.01
2022-12-22T19:14:24.811Z,77.07
2022-12-22T19:16:54.937Z,77.07
2022-12-22T19:19:23.336Z,77.24
2022-12-22T19:21:54.161Z,77.20
2022-12-22T19:24:22.516Z,77.54
2022-12-22T19:26:50.931Z,77.62
2022-12-22T19:29:19.365Z,77.38
2022-12-22T19:31:47.882Z,77.68
2022-12-22T19:34:20.909Z,77.63
2022-12-22T19:36:49.540Z,77.70
2022-12-22T19:39:17.865Z,77.73
2022-12-22T19:41:48.077Z,78.03
2022-12-22T19:44:23.096Z,77.73
2022-12-22T19:46:54.446Z,77.93
2022-12-22T19:49:27.004Z,77.92
2022-12-22T19:51:56.678Z,78.08
2022-12-22T19:54:28.012Z,77.86
2022-12-22T19:56:57.490Z,77.98
2022-12-22T19:59:38.146Z,77.98
2022-12-22T20:02:25.685Z,78.03
2022-12-22T20:04:56.360Z,77.88
2022-12-22T20:07:26.312Z,78.00
2022-12-22T20:09:55.137Z,77.85
2022-12-22T20:12:26.965Z,78.14
2022-12-22T20:14:55.572Z,78.09
2022-12-22T20:17:24.278Z,78.09
2022-12-22T20:19:52.776Z,78.21
2022-12-22T20:22:24.309Z,78.01
2022-12-22T20:24:54.534Z,78.18
2022-12-22T20:27:26.572Z,78.30
2022-12-22T20:29:55.012Z,78.24
2022-12-22T20:32:27.963Z,78.33
2022-12-22T20:34:57.091Z,78.15
2022-12-22T20:37:29.407Z,78.37
2022-12-22T20:39:57.886Z,78.46
2022-12-22T20:42:27.098Z,78.58
2022-12-22T20:45:02.061Z,78.29
2022-12-22T20:47:33.409Z,78.64
2022-12-22T20:50:01.995Z,78.47
2022-12-22T20:52:31.719Z,78.76
2022-12-22T20:55:00.088Z,78.91
2022-12-22T20:57:28.792Z,78.93
2022-12-22T20:59:57.123Z,78.82
2022-12-22T21:02:28.418Z,79.10
2022-12-22T21:04:58.581Z,79.09
2022-12-22T21:07:26.927Z,79.21
2022-12-22T21:09:56.655Z,79.01
2022-12-22T21:12:25.082Z,78.92
2022-12-22T21:14:53.440Z,79.22
2022-12-22T21:17:21.954Z,79.18
2022-12-22T21:19:50.429Z,79.28
2022-12-22T21:22:18.756Z,79.49
2022-12-22T21:24:47.108Z,79.21
2022-12-22T21:27:20.090Z,79.40
2022-12-22T21:29:48.810Z,79.34
2022-12-22T21:32:17.572Z,79.35
2022-12-22T21:34:45.942Z,79.38
2022-12-22T21:37:18.837Z,79.39
2022-12-22T21:39:47.401Z,79.41
2022-12-22T21:42:18.171Z,79.20
2022-12-22T21:44:46.871Z,79.37
2022-12-22T21:47:17.709Z,79.22
2022-12-22T21:49:46.189Z,79.41
2022-12-22T21:52:14.561Z,79.43
2022-12-22T21:54:42.986Z,79.17
2022-12-22T21:57:15.780Z,79.00
2022-12-22T21:59:45.460Z,79.05
2022-12-22T22:02:17.361Z,78.95
2022-12-22T22:04:53.677Z,79.10
2022-12-22T22:07:23.400Z,78.99
2022-12-22T22:09:51.884Z,78.87
2022-12-22T22:12:37.159Z,79.08
2022-12-22T22:15:08.599Z,79.05
2022-12-22T22:17:37.216Z,79.13
2022-12-22T22:20:08.032Z,78.81
2022-12-22T22:22:36.647Z,79.16
2022-12-22T22:25:05.639Z,78.76
2022-12-22T22:27:34.209Z,79.32
2022-12-22T22:30:02.667Z,79.17
2022-12-22T22:32:32.411Z,79.07
2022-12-22T22:35:00.724Z,79.23
2022-12-22T22:37:29.452Z,79.28
2022-12-22T22:39:58.086Z,79.27
2022-12-22T22:42:26.519Z,79.05
2022-12-22T22:44:54.906Z,79.14
2022-12-22T22:47:23.221Z,79.20
2022-12-22T22:49:53.054Z,79.19
2022-12-22T22:52:21.378Z,79.43
2022-12-22T22:54:49.767Z,79.38
2022-12-22T22:57:18.210Z,79.46
2022-12-22T22:59:46.500Z,79.65
2022-12-22T23:02:16.042Z,79.69
2022-12-22T23:04:45.113Z,79.64
2022-12-22T23:07:15.042Z,79.39
2022-12-22T23:09:43.401Z,79.46
2022-12-22T23:12:11.768Z,79.52
2022-12-22T23:14:40.248Z,79.27
2022-12-22T23:17:08.754Z,79.50
2022-12-22T23:19:37.119Z,79.79
2022-12-22T23:22:05.469Z,79.51
2022-12-22T23:24:35.580Z,79.70
2022-12-22T23:27:04.994Z,79.38
2022-12-22T23:29:33.288Z,79.51
2022-12-22T23:32:01.688Z,79.55
2022-12-22T23:34:30.207Z,79.63
2022-12-22T23:36:58.562Z,79.54
2022-12-22T23:39:27.124Z,79.99
2022-12-22T23:41:56.881Z,79.89
2022-12-22T23:44:25.281Z,79.79
2022-12-22T23:46:53.722Z,79.91
2022-12-22T23:49:22.218Z,79.68
2022-12-22T23:51:50.577Z,79.66
2022-12-22T23:54:18.909Z,79.78
2022-12-22T23:56:47.237Z,79.67
2022-12-22T23:59:16.926Z,79.73
